sensor_id;sensor_type;location;lat;lon;timestamp;P1;durP1;ratioP1;P2;durP2;ratioP2
12554;SDS011;6343;50.868;4.700;2023-05-01T00:00:48;4.43;;;2.00;;
12554;SDS011;6343;50.868;4.700;2023-05-01T00:03:14;4.50;;;2.53;;
12554;SDS011;6343;50.868;4.700;2023-05-01T00:05:42;4.60;;;2.50;;
12554;SDS011;6343;50.868;4.700;2023-05-01T00:08:08;2.93;;;2.27;;
12554;SDS011;6343;50.868;4.700;2023-05-01T00:10:35;3.73;;;2.07;;
12554;SDS011;6343;50.868;4.700;2023-05-01T00:13:01;4.77;;;2.53;;
12554;SDS011;6343;50.868;4.700;2023-05-01T00:15:27;4.13;;;2.40;;
12554;SDS011;6343;50.868;4.700;2023-05-01T00:17:54;5.73;;;2.60;;
12554;SDS011;6343;50.868;4.700;2023-05-01T00:20:20;4.37;;;2.40;;
12554;SDS011;6343;50.868;4.700;2023-05-01T00:22:47;4.57;;;2.83;;
12554;SDS011;6343;50.868;4.700;2023-05-01T00:25:14;4.17;;;2.80;;
12554;SDS011;6343;50.868;4.700;2023-05-01T00:27:40;3.23;;;2.30;;
12554;SDS011;6343;50.868;4.700;2023-05-01T00:30:07;4.07;;;2.07;;
12554;SDS011;6343;50.868;4.700;2023-05-01T00:32:33;4.27;;;2.83;;
12554;SDS011;6343;50.868;4.700;2023-05-01T00:34:59;6.70;;;2.80;;
12554;SDS011;6343;50.868;4.700;2023-05-01T00:37:25;3.30;;;2.20;;
12554;SDS011;6343;50.868;4.700;2023-05-01T00:39:51;3.60;;;2.33;;
12554;SDS011;6343;50.868;4.700;2023-05-01T00:42:18;3.67;;;2.53;;
12554;SDS011;6343;50.868;4.700;2023-05-01T00:44:44;5.77;;;2.90;;
12554;SDS011;6343;50.868;4.700;2023-05-01T00:47:10;4.60;;;2.60;;
12554;SDS011;6343;50.868;4.700;2023-05-01T00:49:36;6.57;;;2.70;;
12554;SDS011;6343;50.868;4.700;2023-05-01T00:52:02;3.73;;;2.60;;
12554;SDS011;6343;50.868;4.700;2023-05-01T00:54:28;3.07;;;2.47;;
12554;SDS011;6343;50.868;4.700;2023-05-01T00:56:54;4.67;;;2.87;;
12554;SDS011;6343;50.868;4.700;2023-05-01T00:59:21;7.53;;;2.60;;
12554;SDS011;6343;50.868;4.700;2023-05-01T01:01:47;2.40;;;2.20;;
12554;SDS011;6343;50.868;4.700;2023-05-01T01:04:13;4.10;;;2.07;;
12554;SDS011;6343;50.868;4.700;2023-05-01T01:11:52;6.50;;;2.87;;
12554;SDS011;6343;50.868;4.700;2023-05-01T01:14:26;4.90;;;2.53;;
12554;SDS011;6343;50.868;4.700;2023-05-01T01:16:58;3.60;;;2.50;;
12554;SDS011;6343;50.868;4.700;2023-05-01T01:22:04;4.50;;;3.03;;
12554;SDS011;6343;50.868;4.700;2023-05-01T01:34:59;4.40;;;2.60;;
12554;SDS011;6343;50.868;4.700;2023-05-01T01:37:31;3.73;;;2.50;;
12554;SDS011;6343;50.868;4.700;2023-05-01T01:42:40;5.37;;;2.80;;
12554;SDS011;6343;50.868;4.700;2023-05-01T01:45:08;3.57;;;2.80;;
12554;SDS011;6343;50.868;4.700;2023-05-01T01:47:38;5.30;;;3.30;;
12554;SDS011;6343;50.868;4.700;2023-05-01T01:50:05;3.37;;;2.83;;
12554;SDS011;6343;50.868;4.700;2023-05-01T01:52:34;4.83;;;2.57;;
12554;SDS011;6343;50.868;4.700;2023-05-01T01:55:07;5.07;;;2.87;;
12554;SDS011;6343;50.868;4.700;2023-05-01T01:57:37;4.97;;;2.70;;
12554;SDS011;6343;50.868;4.700;2023-05-01T02:00:08;4.90;;;2.43;;
12554;SDS011;6343;50.868;4.700;2023-05-01T02:02:35;4.40;;;2.90;;
12554;SDS011;6343;50.868;4.700;2023-05-01T02:05:02;5.83;;;3.03;;
12554;SDS011;6343;50.868;4.700;2023-05-01T02:07:28;3.83;;;2.90;;
12554;SDS011;6343;50.868;4.700;2023-05-01T02:09:56;5.57;;;2.80;;
12554;SDS011;6343;50.868;4.700;2023-05-01T02:12:23;3.50;;;2.50;;
12554;SDS011;6343;50.868;4.700;2023-05-01T02:14:50;4.87;;;2.60;;
12554;SDS011;6343;50.868;4.700;2023-05-01T02:17:18;7.27;;;2.70;;
12554;SDS011;6343;50.868;4.700;2023-05-01T02:19:45;6.13;;;2.70;;
12554;SDS011;6343;50.868;4.700;2023-05-01T02:22:11;3.53;;;3.00;;
12554;SDS011;6343;50.868;4.700;2023-05-01T02:24:38;4.03;;;2.90;;
12554;SDS011;6343;50.868;4.700;2023-05-01T02:27:15;3.67;;;2.80;;
12554;SDS011;6343;50.868;4.700;2023-05-01T02:29:41;6.13;;;3.03;;
12554;SDS011;6343;50.868;4.700;2023-05-01T02:32:08;3.93;;;2.60;;
12554;SDS011;6343;50.868;4.700;2023-05-01T02:34:34;3.23;;;2.73;;
12554;SDS011;6343;50.868;4.700;2023-05-01T02:37:01;3.83;;;2.90;;
12554;SDS011;6343;50.868;4.700;2023-05-01T02:39:27;4.53;;;3.17;;
12554;SDS011;6343;50.868;4.700;2023-05-01T02:41:53;5.33;;;2.67;;
12554;SDS011;6343;50.868;4.700;2023-05-01T02:44:20;3.80;;;2.80;;
12554;SDS011;6343;50.868;4.700;2023-05-01T02:46:47;4.07;;;2.73;;
12554;SDS011;6343;50.868;4.700;2023-05-01T02:49:15;6.03;;;2.70;;
12554;SDS011;6343;50.868;4.700;2023-05-01T02:51:42;6.30;;;3.00;;
12554;SDS011;6343;50.868;4.700;2023-05-01T02:54:09;5.20;;;3.33;;
12554;SDS011;6343;50.868;4.700;2023-05-01T02:56:35;5.57;;;3.33;;
12554;SDS011;6343;50.868;4.700;2023-05-01T02:59:01;4.03;;;2.90;;
12554;SDS011;6343;50.868;4.700;2023-05-01T03:01:27;3.30;;;2.80;;
12554;SDS011;6343;50.868;4.700;2023-05-01T03:03:53;5.00;;;2.77;;
12554;SDS011;6343;50.868;4.700;2023-05-01T03:06:19;3.07;;;2.77;;
12554;SDS011;6343;50.868;4.700;2023-05-01T03:08:45;3.13;;;2.57;;
12554;SDS011;6343;50.868;4.700;2023-05-01T03:11:12;6.17;;;2.87;;
12554;SDS011;6343;50.868;4.700;2023-05-01T03:13:38;6.37;;;3.17;;
12554;SDS011;6343;50.868;4.700;2023-05-01T03:16:04;5.77;;;2.80;;
12554;SDS011;6343;50.868;4.700;2023-05-01T03:18:31;7.40;;;3.40;;
12554;SDS011;6343;50.868;4.700;2023-05-01T03:20:57;3.73;;;2.80;;
12554;SDS011;6343;50.868;4.700;2023-05-01T03:23:23;7.03;;;3.20;;
12554;SDS011;6343;50.868;4.700;2023-05-01T03:25:50;5.93;;;3.47;;
12554;SDS011;6343;50.868;4.700;2023-05-01T03:28:16;4.50;;;3.33;;
12554;SDS011;6343;50.868;4.700;2023-05-01T03:30:45;6.10;;;3.13;;
12554;SDS011;6343;50.868;4.700;2023-05-01T03:33:11;4.37;;;3.23;;
12554;SDS011;6343;50.868;4.700;2023-05-01T03:35:37;7.77;;;4.03;;
12554;SDS011;6343;50.868;4.700;2023-05-01T03:38:04;4.93;;;2.93;;
12554;SDS011;6343;50.868;4.700;2023-05-01T03:40:30;4.90;;;3.17;;
12554;SDS011;6343;50.868;4.700;2023-05-01T03:42:56;6.53;;;3.53;;
12554;SDS011;6343;50.868;4.700;2023-05-01T03:45:22;4.63;;;3.10;;
12554;SDS011;6343;50.868;4.700;2023-05-01T03:47:48;4.53;;;2.83;;
12554;SDS011;6343;50.868;4.700;2023-05-01T03:50:14;5.33;;;3.20;;
12554;SDS011;6343;50.868;4.700;2023-05-01T03:52:40;4.13;;;3.30;;
12554;SDS011;6343;50.868;4.700;2023-05-01T03:55:07;4.50;;;3.20;;
12554;SDS011;6343;50.868;4.700;2023-05-01T03:57:33;5.30;;;3.10;;
12554;SDS011;6343;50.868;4.700;2023-05-01T03:59:59;4.70;;;3.50;;
12554;SDS011;6343;50.868;4.700;2023-05-01T04:02:25;5.50;;;3.27;;
12554;SDS011;6343;50.868;4.700;2023-05-01T04:04:51;4.73;;;3.17;;
12554;SDS011;6343;50.868;4.700;2023-05-01T04:07:18;5.33;;;3.00;;
12554;SDS011;6343;50.868;4.700;2023-05-01T04:09:44;5.07;;;3.10;;
12554;SDS011;6343;50.868;4.700;2023-05-01T04:12:10;8.03;;;3.37;;
12554;SDS011;6343;50.868;4.700;2023-05-01T04:14:36;2.93;;;2.63;;
12554;SDS011;6343;50.868;4.700;2023-05-01T04:17:02;10.00;;;3.00;;
12554;SDS011;6343;50.868;4.700;2023-05-01T04:19:28;4.67;;;2.93;;
12554;SDS011;6343;50.868;4.700;2023-05-01T04:21:54;4.67;;;2.80;;
12554;SDS011;6343;50.868;4.700;2023-05-01T04:24:21;8.00;;;3.60;;
12554;SDS011;6343;50.868;4.700;2023-05-01T04:26:47;6.07;;;3.57;;
12554;SDS011;6343;50.868;4.700;2023-05-01T04:29:13;4.97;;;3.70;;
12554;SDS011;6343;50.868;4.700;2023-05-01T04:31:39;5.93;;;3.20;;
12554;SDS011;6343;50.868;4.700;2023-05-01T04:34:07;5.60;;;2.90;;
12554;SDS011;6343;50.868;4.700;2023-05-01T04:36:33;6.07;;;3.60;;
12554;SDS011;6343;50.868;4.700;2023-05-01T04:38:59;6.27;;;3.30;;
12554;SDS011;6343;50.868;4.700;2023-05-01T04:41:25;3.53;;;3.20;;
12554;SDS011;6343;50.868;4.700;2023-05-01T04:43:51;4.10;;;2.73;;
12554;SDS011;6343;50.868;4.700;2023-05-01T04:46:17;4.57;;;3.10;;
12554;SDS011;6343;50.868;4.700;2023-05-01T04:48:43;4.10;;;2.97;;
12554;SDS011;6343;50.868;4.700;2023-05-01T04:51:09;4.67;;;3.30;;
12554;SDS011;6343;50.868;4.700;2023-05-01T04:53:35;7.30;;;3.33;;
12554;SDS011;6343;50.868;4.700;2023-05-01T04:56:01;7.13;;;3.00;;
12554;SDS011;6343;50.868;4.700;2023-05-01T04:58:28;4.97;;;3.27;;
12554;SDS011;6343;50.868;4.700;2023-05-01T05:00:54;3.87;;;3.10;;
12554;SDS011;6343;50.868;4.700;2023-05-01T05:03:20;5.73;;;3.20;;
12554;SDS011;6343;50.868;4.700;2023-05-01T05:05:47;5.23;;;3.00;;
12554;SDS011;6343;50.868;4.700;2023-05-01T05:08:13;3.50;;;3.20;;
12554;SDS011;6343;50.868;4.700;2023-05-01T05:10:39;3.73;;;3.07;;
12554;SDS011;6343;50.868;4.700;2023-05-01T05:13:05;4.70;;;3.00;;
12554;SDS011;6343;50.868;4.700;2023-05-01T05:15:31;5.33;;;3.10;;
12554;SDS011;6343;50.868;4.700;2023-05-01T05:17:57;5.17;;;3.17;;
12554;SDS011;6343;50.868;4.700;2023-05-01T05:20:23;3.80;;;2.90;;
12554;SDS011;6343;50.868;4.700;2023-05-01T05:22:50;6.00;;;3.23;;
12554;SDS011;6343;50.868;4.700;2023-05-01T05:25:16;7.20;;;3.00;;
12554;SDS011;6343;50.868;4.700;2023-05-01T05:27:42;9.20;;;3.37;;
12554;SDS011;6343;50.868;4.700;2023-05-01T05:30:08;4.30;;;3.30;;
12554;SDS011;6343;50.868;4.700;2023-05-01T05:32:35;7.87;;;3.10;;
12554;SDS011;6343;50.868;4.700;2023-05-01T05:35:01;5.33;;;3.20;;
12554;SDS011;6343;50.868;4.700;2023-05-01T05:37:27;7.43;;;3.33;;
12554;SDS011;6343;50.868;4.700;2023-05-01T05:39:53;4.83;;;3.00;;
12554;SDS011;6343;50.868;4.700;2023-05-01T05:42:20;4.43;;;2.70;;
12554;SDS011;6343;50.868;4.700;2023-05-01T05:44:46;6.83;;;4.67;;
12554;SDS011;6343;50.868;4.700;2023-05-01T05:47:12;3.23;;;2.93;;
12554;SDS011;6343;50.868;4.700;2023-05-01T05:49:38;4.60;;;3.20;;
12554;SDS011;6343;50.868;4.700;2023-05-01T05:52:04;6.00;;;3.40;;
12554;SDS011;6343;50.868;4.700;2023-05-01T05:54:30;3.63;;;3.13;;
12554;SDS011;6343;50.868;4.700;2023-05-01T05:56:56;7.30;;;3.23;;
12554;SDS011;6343;50.868;4.700;2023-05-01T05:59:22;4.13;;;3.27;;
12554;SDS011;6343;50.868;4.700;2023-05-01T06:01:48;3.97;;;3.57;;
12554;SDS011;6343;50.868;4.700;2023-05-01T06:04:14;6.63;;;3.70;;
12554;SDS011;6343;50.868;4.700;2023-05-01T06:06:40;8.87;;;3.93;;
12554;SDS011;6343;50.868;4.700;2023-05-01T06:09:07;8.33;;;3.67;;
12554;SDS011;6343;50.868;4.700;2023-05-01T06:11:33;6.33;;;4.07;;
12554;SDS011;6343;50.868;4.700;2023-05-01T06:13:59;6.93;;;4.20;;
12554;SDS011;6343;50.868;4.700;2023-05-01T06:16:26;5.70;;;3.80;;
12554;SDS011;6343;50.868;4.700;2023-05-01T06:18:53;4.83;;;3.60;;
12554;SDS011;6343;50.868;4.700;2023-05-01T06:21:19;8.30;;;3.67;;
12554;SDS011;6343;50.868;4.700;2023-05-01T06:23:45;8.10;;;4.30;;
12554;SDS011;6343;50.868;4.700;2023-05-01T06:26:11;5.13;;;3.47;;
12554;SDS011;6343;50.868;4.700;2023-05-01T06:28:37;6.23;;;4.20;;
12554;SDS011;6343;50.868;4.700;2023-05-01T06:31:03;4.37;;;3.73;;
12554;SDS011;6343;50.868;4.700;2023-05-01T06:33:29;6.50;;;4.23;;
12554;SDS011;6343;50.868;4.700;2023-05-01T06:35:55;5.53;;;3.77;;
12554;SDS011;6343;50.868;4.700;2023-05-01T06:38:24;9.30;;;3.93;;
12554;SDS011;6343;50.868;4.700;2023-05-01T06:40:50;5.43;;;3.87;;
12554;SDS011;6343;50.868;4.700;2023-05-01T06:43:16;5.73;;;3.83;;
12554;SDS011;6343;50.868;4.700;2023-05-01T06:45:43;5.57;;;3.77;;
12554;SDS011;6343;50.868;4.700;2023-05-01T06:48:09;5.60;;;3.70;;
12554;SDS011;6343;50.868;4.700;2023-05-01T06:50:35;5.23;;;3.70;;
12554;SDS011;6343;50.868;4.700;2023-05-01T06:53:01;6.17;;;4.03;;
12554;SDS011;6343;50.868;4.700;2023-05-01T06:55:28;4.47;;;3.97;;
12554;SDS011;6343;50.868;4.700;2023-05-01T06:57:58;4.17;;;3.77;;
12554;SDS011;6343;50.868;4.700;2023-05-01T07:00:24;4.13;;;3.50;;
12554;SDS011;6343;50.868;4.700;2023-05-01T07:02:50;4.23;;;3.50;;
12554;SDS011;6343;50.868;4.700;2023-05-01T07:05:17;7.23;;;4.63;;
12554;SDS011;6343;50.868;4.700;2023-05-01T07:07:43;5.90;;;4.10;;
12554;SDS011;6343;50.868;4.700;2023-05-01T07:10:09;4.80;;;3.70;;
12554;SDS011;6343;50.868;4.700;2023-05-01T07:12:35;5.20;;;3.80;;
12554;SDS011;6343;50.868;4.700;2023-05-01T07:15:01;4.13;;;3.60;;
12554;SDS011;6343;50.868;4.700;2023-05-01T07:17:28;5.03;;;3.07;;
12554;SDS011;6343;50.868;4.700;2023-05-01T07:19:54;4.83;;;4.17;;
12554;SDS011;6343;50.868;4.700;2023-05-01T07:22:20;4.90;;;3.90;;
12554;SDS011;6343;50.868;4.700;2023-05-01T07:24:46;6.87;;;4.23;;
12554;SDS011;6343;50.868;4.700;2023-05-01T07:27:12;8.27;;;4.27;;
12554;SDS011;6343;50.868;4.700;2023-05-01T07:29:39;5.37;;;4.23;;
12554;SDS011;6343;50.868;4.700;2023-05-01T07:32:05;4.10;;;3.63;;
12554;SDS011;6343;50.868;4.700;2023-05-01T07:34:31;6.97;;;4.47;;
12554;SDS011;6343;50.868;4.700;2023-05-01T07:36:57;7.17;;;5.00;;
12554;SDS011;6343;50.868;4.700;2023-05-01T07:39:24;6.20;;;4.87;;
12554;SDS011;6343;50.868;4.700;2023-05-01T07:41:52;8.03;;;5.20;;
12554;SDS011;6343;50.868;4.700;2023-05-01T07:44:18;6.37;;;5.77;;
12554;SDS011;6343;50.868;4.700;2023-05-01T07:46:44;6.80;;;6.10;;
12554;SDS011;6343;50.868;4.700;2023-05-01T07:49:10;7.10;;;5.93;;
12554;SDS011;6343;50.868;4.700;2023-05-01T07:51:36;11.07;;;7.63;;
12554;SDS011;6343;50.868;4.700;2023-05-01T07:54:02;9.50;;;7.57;;
12554;SDS011;6343;50.868;4.700;2023-05-01T07:56:31;9.97;;;7.27;;
12554;SDS011;6343;50.868;4.700;2023-05-01T07:58:57;10.67;;;8.37;;
12554;SDS011;6343;50.868;4.700;2023-05-01T08:01:24;14.53;;;10.20;;
12554;SDS011;6343;50.868;4.700;2023-05-01T08:03:50;11.20;;;9.40;;
12554;SDS011;6343;50.868;4.700;2023-05-01T08:06:49;10.73;;;9.63;;
12554;SDS011;6343;50.868;4.700;2023-05-01T08:09:15;11.70;;;9.93;;
12554;SDS011;6343;50.868;4.700;2023-05-01T08:11:42;10.70;;;9.57;;
12554;SDS011;6343;50.868;4.700;2023-05-01T08:14:08;13.10;;;11.70;;
12554;SDS011;6343;50.868;4.700;2023-05-01T08:16:34;11.33;;;9.73;;
12554;SDS011;6343;50.868;4.700;2023-05-01T08:19:00;14.47;;;11.10;;
12554;SDS011;6343;50.868;4.700;2023-05-01T08:21:26;23.00;;;13.03;;
12554;SDS011;6343;50.868;4.700;2023-05-01T08:23:53;16.23;;;12.87;;
12554;SDS011;6343;50.868;4.700;2023-05-01T08:26:22;16.33;;;13.07;;
12554;SDS011;6343;50.868;4.700;2023-05-01T08:28:49;18.47;;;12.80;;
12554;SDS011;6343;50.868;4.700;2023-05-01T08:31:15;16.30;;;13.07;;
12554;SDS011;6343;50.868;4.700;2023-05-01T08:33:41;17.00;;;12.93;;
12554;SDS011;6343;50.868;4.700;2023-05-01T08:36:08;17.73;;;14.00;;
12554;SDS011;6343;50.868;4.700;2023-05-01T08:38:35;16.30;;;13.53;;
12554;SDS011;6343;50.868;4.700;2023-05-01T08:41:01;18.13;;;13.37;;
12554;SDS011;6343;50.868;4.700;2023-05-01T08:43:30;18.27;;;14.03;;
12554;SDS011;6343;50.868;4.700;2023-05-01T08:46:00;15.50;;;13.87;;
12554;SDS011;6343;50.868;4.700;2023-05-01T08:48:27;21.30;;;14.80;;
12554;SDS011;6343;50.868;4.700;2023-05-01T08:50:54;20.13;;;15.53;;
12554;SDS011;6343;50.868;4.700;2023-05-01T08:53:23;19.83;;;15.57;;
12554;SDS011;6343;50.868;4.700;2023-05-01T08:55:50;22.80;;;16.93;;
12554;SDS011;6343;50.868;4.700;2023-05-01T08:58:17;23.67;;;17.23;;
12554;SDS011;6343;50.868;4.700;2023-05-01T09:00:45;25.30;;;16.73;;
12554;SDS011;6343;50.868;4.700;2023-05-01T09:03:11;20.20;;;17.03;;
12554;SDS011;6343;50.868;4.700;2023-05-01T09:05:38;21.27;;;17.13;;
12554;SDS011;6343;50.868;4.700;2023-05-01T09:08:04;21.03;;;17.37;;
12554;SDS011;6343;50.868;4.700;2023-05-01T09:10:31;21.50;;;16.57;;
12554;SDS011;6343;50.868;4.700;2023-05-01T09:13:01;26.07;;;17.70;;
12554;SDS011;6343;50.868;4.700;2023-05-01T09:15:31;21.40;;;17.47;;
12554;SDS011;6343;50.868;4.700;2023-05-01T09:17:58;24.73;;;16.20;;
12554;SDS011;6343;50.868;4.700;2023-05-01T09:20:25;26.17;;;17.87;;
12554;SDS011;6343;50.868;4.700;2023-05-01T09:22:51;22.13;;;16.83;;
12554;SDS011;6343;50.868;4.700;2023-05-01T09:25:17;22.27;;;15.73;;
12554;SDS011;6343;50.868;4.700;2023-05-01T09:27:44;22.90;;;17.87;;
12554;SDS011;6343;50.868;4.700;2023-05-01T09:30:14;22.83;;;17.53;;
12554;SDS011;6343;50.868;4.700;2023-05-01T09:33:04;23.40;;;18.40;;
12554;SDS011;6343;50.868;4.700;2023-05-01T09:35:30;28.07;;;21.17;;
12554;SDS011;6343;50.868;4.700;2023-05-01T09:37:58;31.37;;;21.77;;
12554;SDS011;6343;50.868;4.700;2023-05-01T09:40:27;31.40;;;22.97;;
12554;SDS011;6343;50.868;4.700;2023-05-01T09:42:53;32.10;;;22.53;;
12554;SDS011;6343;50.868;4.700;2023-05-01T09:45:22;30.63;;;23.40;;
12554;SDS011;6343;50.868;4.700;2023-05-01T09:47:50;32.40;;;21.77;;
12554;SDS011;6343;50.868;4.700;2023-05-01T09:52:55;29.67;;;21.20;;
12554;SDS011;6343;50.868;4.700;2023-05-01T09:55:21;32.43;;;21.83;;
12554;SDS011;6343;50.868;4.700;2023-05-01T09:57:48;32.53;;;23.90;;
12554;SDS011;6343;50.868;4.700;2023-05-01T10:00:15;31.40;;;23.40;;
12554;SDS011;6343;50.868;4.700;2023-05-01T10:02:44;35.60;;;22.53;;
12554;SDS011;6343;50.868;4.700;2023-05-01T10:05:11;34.90;;;22.97;;
12554;SDS011;6343;50.868;4.700;2023-05-01T10:07:38;29.93;;;21.60;;
12554;SDS011;6343;50.868;4.700;2023-05-01T10:10:17;34.17;;;24.77;;
12554;SDS011;6343;50.868;4.700;2023-05-01T10:12:44;35.23;;;24.93;;
12554;SDS011;6343;50.868;4.700;2023-05-01T10:15:10;34.07;;;24.20;;
12554;SDS011;6343;50.868;4.700;2023-05-01T10:17:37;38.47;;;26.67;;
12554;SDS011;6343;50.868;4.700;2023-05-01T10:20:04;39.13;;;27.10;;
12554;SDS011;6343;50.868;4.700;2023-05-01T10:22:30;38.47;;;25.47;;
12554;SDS011;6343;50.868;4.700;2023-05-01T10:24:56;36.57;;;23.70;;
12554;SDS011;6343;50.868;4.700;2023-05-01T10:27:23;32.50;;;24.63;;
12554;SDS011;6343;50.868;4.700;2023-05-01T10:29:53;41.83;;;27.60;;
12554;SDS011;6343;50.868;4.700;2023-05-01T10:32:20;37.53;;;26.07;;
12554;SDS011;6343;50.868;4.700;2023-05-01T10:34:47;34.33;;;24.20;;
12554;SDS011;6343;50.868;4.700;2023-05-01T10:37:21;35.70;;;24.27;;
12554;SDS011;6343;50.868;4.700;2023-05-01T10:39:48;34.07;;;23.77;;
12554;SDS011;6343;50.868;4.700;2023-05-01T10:42:14;34.03;;;25.33;;
12554;SDS011;6343;50.868;4.700;2023-05-01T10:44:41;36.80;;;25.30;;
12554;SDS011;6343;50.868;4.700;2023-05-01T10:53:16;38.67;;;25.53;;
12554;SDS011;6343;50.868;4.700;2023-05-01T10:55:36;38.63;;;25.87;;
12554;SDS011;6343;50.868;4.700;2023-05-01T10:58:02;41.77;;;25.53;;
12554;SDS011;6343;50.868;4.700;2023-05-01T11:00:29;37.67;;;25.33;;
12554;SDS011;6343;50.868;4.700;2023-05-01T11:08:28;34.87;;;23.33;;
12554;SDS011;6343;50.868;4.700;2023-05-01T11:10:57;33.33;;;24.53;;
12554;SDS011;6343;50.868;4.700;2023-05-01T11:19:04;36.80;;;24.50;;
12554;SDS011;6343;50.868;4.700;2023-05-01T11:21:30;36.80;;;24.53;;
12554;SDS011;6343;50.868;4.700;2023-05-01T11:24:07;36.37;;;23.63;;
12554;SDS011;6343;50.868;4.700;2023-05-01T11:26:40;36.70;;;24.87;;
12554;SDS011;6343;50.868;4.700;2023-05-01T11:29:07;37.80;;;24.50;;
12554;SDS011;6343;50.868;4.700;2023-05-01T11:31:37;32.93;;;24.07;;
12554;SDS011;6343;50.868;4.700;2023-05-01T11:34:03;40.77;;;23.73;;
12554;SDS011;6343;50.868;4.700;2023-05-01T11:36:48;32.77;;;21.37;;
12554;SDS011;6343;50.868;4.700;2023-05-01T11:39:15;28.97;;;20.37;;
12554;SDS011;6343;50.868;4.700;2023-05-01T11:41:41;31.23;;;20.90;;
12554;SDS011;6343;50.868;4.700;2023-05-01T11:44:10;32.40;;;21.00;;
12554;SDS011;6343;50.868;4.700;2023-05-01T11:46:36;31.53;;;20.17;;
12554;SDS011;6343;50.868;4.700;2023-05-01T11:49:02;29.50;;;21.10;;
12554;SDS011;6343;50.868;4.700;2023-05-01T11:51:28;31.07;;;20.80;;
12554;SDS011;6343;50.868;4.700;2023-05-01T11:54:06;30.30;;;21.93;;
12554;SDS011;6343;50.868;4.700;2023-05-01T11:56:33;32.83;;;21.87;;
12554;SDS011;6343;50.868;4.700;2023-05-01T11:59:07;27.67;;;18.70;;
12554;SDS011;6343;50.868;4.700;2023-05-01T12:01:34;24.47;;;17.00;;
12554;SDS011;6343;50.868;4.700;2023-05-01T12:04:01;28.57;;;18.37;;
12554;SDS011;6343;50.868;4.700;2023-05-01T12:06:40;27.17;;;18.83;;
12554;SDS011;6343;50.868;4.700;2023-05-01T12:09:10;25.27;;;18.93;;
12554;SDS011;6343;50.868;4.700;2023-05-01T12:11:40;26.77;;;19.23;;
12554;SDS011;6343;50.868;4.700;2023-05-01T12:14:07;24.60;;;18.53;;
12554;SDS011;6343;50.868;4.700;2023-05-01T12:16:33;22.50;;;18.07;;
12554;SDS011;6343;50.868;4.700;2023-05-01T12:19:00;25.60;;;18.07;;
12554;SDS011;6343;50.868;4.700;2023-05-01T12:21:27;29.00;;;20.03;;
12554;SDS011;6343;50.868;4.700;2023-05-01T12:23:53;25.87;;;19.00;;
12554;SDS011;6343;50.868;4.700;2023-05-01T12:26:20;26.27;;;18.83;;
12554;SDS011;6343;50.868;4.700;2023-05-01T12:31:18;27.40;;;19.87;;
12554;SDS011;6343;50.868;4.700;2023-05-01T12:33:52;28.70;;;21.47;;
12554;SDS011;6343;50.868;4.700;2023-05-01T12:36:19;33.03;;;24.07;;
12554;SDS011;6343;50.868;4.700;2023-05-01T12:38:53;34.73;;;23.90;;
12554;SDS011;6343;50.868;4.700;2023-05-01T12:41:20;32.27;;;22.73;;
12554;SDS011;6343;50.868;4.700;2023-05-01T12:43:46;32.03;;;22.03;;
12554;SDS011;6343;50.868;4.700;2023-05-01T12:46:13;30.40;;;22.33;;
12554;SDS011;6343;50.868;4.700;2023-05-01T12:48:40;27.50;;;21.33;;
12554;SDS011;6343;50.868;4.700;2023-05-01T12:51:07;31.57;;;23.43;;
12554;SDS011;6343;50.868;4.700;2023-05-01T12:53:33;29.50;;;21.57;;
12554;SDS011;6343;50.868;4.700;2023-05-01T12:55:59;33.37;;;21.90;;
12554;SDS011;6343;50.868;4.700;2023-05-01T12:58:34;31.67;;;20.67;;
12554;SDS011;6343;50.868;4.700;2023-05-01T13:01:00;30.17;;;20.87;;
12554;SDS011;6343;50.868;4.700;2023-05-01T13:03:27;25.30;;;18.40;;
12554;SDS011;6343;50.868;4.700;2023-05-01T13:05:58;22.83;;;16.60;;
12554;SDS011;6343;50.868;4.700;2023-05-01T13:08:25;16.00;;;12.93;;
12554;SDS011;6343;50.868;4.700;2023-05-01T13:10:55;12.40;;;11.10;;
12554;SDS011;6343;50.868;4.700;2023-05-01T13:13:24;13.90;;;11.47;;
12554;SDS011;6343;50.868;4.700;2023-05-01T13:15:51;12.57;;;10.67;;
12554;SDS011;6343;50.868;4.700;2023-05-01T13:18:17;14.03;;;12.00;;
12554;SDS011;6343;50.868;4.700;2023-05-01T13:20:43;14.13;;;11.57;;
12554;SDS011;6343;50.868;4.700;2023-05-01T13:23:10;14.53;;;11.83;;
12554;SDS011;6343;50.868;4.700;2023-05-01T13:25:37;15.57;;;11.37;;
12554;SDS011;6343;50.868;4.700;2023-05-01T13:28:03;13.70;;;11.07;;
12554;SDS011;6343;50.868;4.700;2023-05-01T13:30:30;15.70;;;13.67;;
12554;SDS011;6343;50.868;4.700;2023-05-01T13:32:57;14.97;;;10.53;;
12554;SDS011;6343;50.868;4.700;2023-05-01T13:35:24;14.33;;;10.97;;
12554;SDS011;6343;50.868;4.700;2023-05-01T13:37:51;13.30;;;10.80;;
12554;SDS011;6343;50.868;4.700;2023-05-01T13:40:17;15.53;;;12.80;;
12554;SDS011;6343;50.868;4.700;2023-05-01T13:42:44;16.10;;;12.73;;
12554;SDS011;6343;50.868;4.700;2023-05-01T13:45:10;14.13;;;12.63;;
12554;SDS011;6343;50.868;4.700;2023-05-01T13:47:40;17.20;;;12.83;;
12554;SDS011;6343;50.868;4.700;2023-05-01T13:50:07;15.30;;;11.03;;
12554;SDS011;6343;50.868;4.700;2023-05-01T13:52:38;15.87;;;11.93;;
12554;SDS011;6343;50.868;4.700;2023-05-01T13:55:05;15.27;;;11.90;;
12554;SDS011;6343;50.868;4.700;2023-05-01T13:57:31;15.17;;;13.10;;
12554;SDS011;6343;50.868;4.700;2023-05-01T13:59:57;15.30;;;12.77;;
12554;SDS011;6343;50.868;4.700;2023-05-01T14:02:25;16.83;;;13.90;;
12554;SDS011;6343;50.868;4.700;2023-05-01T14:04:52;14.97;;;13.33;;
12554;SDS011;6343;50.868;4.700;2023-05-01T14:07:19;17.17;;;13.47;;
12554;SDS011;6343;50.868;4.700;2023-05-01T14:09:51;15.20;;;12.93;;
12554;SDS011;6343;50.868;4.700;2023-05-01T14:12:18;16.23;;;13.57;;
12554;SDS011;6343;50.868;4.700;2023-05-01T14:14:46;17.23;;;12.63;;
12554;SDS011;6343;50.868;4.700;2023-05-01T14:17:13;15.37;;;12.30;;
12554;SDS011;6343;50.868;4.700;2023-05-01T14:19:39;16.67;;;13.37;;
12554;SDS011;6343;50.868;4.700;2023-05-01T14:22:06;15.80;;;13.43;;
12554;SDS011;6343;50.868;4.700;2023-05-01T14:24:36;17.83;;;12.90;;
12554;SDS011;6343;50.868;4.700;2023-05-01T14:27:02;15.13;;;13.53;;
12554;SDS011;6343;50.868;4.700;2023-05-01T14:29:28;18.23;;;12.93;;
12554;SDS011;6343;50.868;4.700;2023-05-01T14:31:54;21.90;;;13.87;;
12554;SDS011;6343;50.868;4.700;2023-05-01T14:34:21;17.77;;;12.60;;
12554;SDS011;6343;50.868;4.700;2023-05-01T14:36:47;17.97;;;13.53;;
12554;SDS011;6343;50.868;4.700;2023-05-01T14:39:13;17.10;;;12.37;;
12554;SDS011;6343;50.868;4.700;2023-05-01T14:41:42;16.07;;;12.63;;
12554;SDS011;6343;50.868;4.700;2023-05-01T14:44:12;15.40;;;12.83;;
12554;SDS011;6343;50.868;4.700;2023-05-01T14:46:42;18.87;;;11.73;;
12554;SDS011;6343;50.868;4.700;2023-05-01T14:49:10;16.40;;;12.67;;
12554;SDS011;6343;50.868;4.700;2023-05-01T14:51:41;17.30;;;12.50;;
12554;SDS011;6343;50.868;4.700;2023-05-01T14:54:08;17.80;;;12.90;;
12554;SDS011;6343;50.868;4.700;2023-05-01T14:56:35;15.73;;;12.10;;
12554;SDS011;6343;50.868;4.700;2023-05-01T14:59:02;21.13;;;13.07;;
12554;SDS011;6343;50.868;4.700;2023-05-01T15:01:28;24.43;;;13.17;;
12554;SDS011;6343;50.868;4.700;2023-05-01T15:03:54;17.47;;;12.47;;
12554;SDS011;6343;50.868;4.700;2023-05-01T15:06:20;15.57;;;12.13;;
12554;SDS011;6343;50.868;4.700;2023-05-01T15:08:48;15.03;;;11.60;;
12554;SDS011;6343;50.868;4.700;2023-05-01T15:11:14;15.50;;;11.53;;
12554;SDS011;6343;50.868;4.700;2023-05-01T15:13:42;14.13;;;10.83;;
12554;SDS011;6343;50.868;4.700;2023-05-01T15:16:09;14.17;;;11.00;;
12554;SDS011;6343;50.868;4.700;2023-05-01T15:18:36;15.57;;;11.40;;
12554;SDS011;6343;50.868;4.700;2023-05-01T15:21:02;14.43;;;10.37;;
12554;SDS011;6343;50.868;4.700;2023-05-01T15:23:28;13.43;;;9.80;;
12554;SDS011;6343;50.868;4.700;2023-05-01T15:25:55;12.73;;;9.73;;
12554;SDS011;6343;50.868;4.700;2023-05-01T15:28:22;13.53;;;9.37;;
12554;SDS011;6343;50.868;4.700;2023-05-01T15:30:50;11.13;;;8.37;;